sensor_id;sensor_type;location;lat;lon;timestamp;pressure;altitude;pressure_sealevel;temperature;humidity
74633;BME280;63139;52.018;8.552;2023-07-22T00:00:46;100312.38;;;11.92;100.00
74633;BME280;63139;52.018;8.552;2023-07-22T00:03:14;100310.72;;;11.91;100.00
74633;BME280;63139;52.018;8.552;2023-07-22T00:05:42;100307.44;;;11.89;100.00
74633;BME280;63139;52.018;8.552;2023-07-22T00:08:10;100309.25;;;11.88;100.00
74633;BME280;63139;52.018;8.552;2023-07-22T00:10:42;100311.91;;;11.88;100.00
74633;BME280;63139;52.018;8.552;2023-07-22T00:13:10;100301.28;;;11.88;100.00
74633;BME280;63139;52.018;8.552;2023-07-22T00:15:37;100299.63;;;11.87;100.00
74633;BME280;63139;52.018;8.552;2023-07-22T00:18:05;100304.13;;;11.87;100.00
74633;BME280;63139;52.018;8.552;2023-07-22T00:20:33;100304.13;;;11.87;100.00
74633;BME280;63139;52.018;8.552;2023-07-22T00:23:01;100303.94;;;11.88;100.00
74633;BME280;63139;52.018;8.552;2023-07-22T00:25:29;100303.41;;;11.93;100.00
74633;BME280;63139;52.018;8.552;2023-07-22T00:27:58;100305.97;;;12.01;100.00
74633;BME280;63139;52.018;8.552;2023-07-22T00:30:26;100308.34;;;12.11;100.00
74633;BME280;63139;52.018;8.552;2023-07-22T00:32:54;100301.13;;;12.19;100.00
74633;BME280;63139;52.018;8.552;2023-07-22T00:35:22;100296.56;;;12.28;100.00
74633;BME280;63139;52.018;8.552;2023-07-22T00:37:50;100300.13;;;12.35;100.00
74633;BME280;63139;52.018;8.552;2023-07-22T00:40:18;100302.88;;;12.41;100.00
74633;BME280;63139;52.018;8.552;2023-07-22T00:42:46;100298.38;;;12.42;100.00
74633;BME280;63139;52.018;8.552;2023-07-22T00:45:16;100290.44;;;12.42;100.00
74633;BME280;63139;52.018;8.552;2023-07-22T00:47:45;100294.09;;;12.41;100.00
74633;BME280;63139;52.018;8.552;2023-07-22T00:50:13;100289.41;;;12.43;100.00
74633;BME280;63139;52.018;8.552;2023-07-22T00:52:41;100298.22;;;12.43;100.00
74633;BME280;63139;52.018;8.552;2023-07-22T00:55:09;100293.91;;;12.42;100.00
74633;BME280;63139;52.018;8.552;2023-07-22T00:57:37;100293.06;;;12.42;100.00
74633;BME280;63139;52.018;8.552;2023-07-22T01:00:06;100290.78;;;12.39;100.00
74633;BME280;63139;52.018;8.552;2023-07-22T01:02:40;100288.94;;;12.39;100.00
74633;BME280;63139;52.018;8.552;2023-07-22T01:05:10;100296.91;;;12.39;100.00
74633;BME280;63139;52.018;8.552;2023-07-22T01:07:38;100285.28;;;12.40;100.00
74633;BME280;63139;52.018;8.552;2023-07-22T01:10:07;100286.47;;;12.38;99.48
74633;BME280;63139;52.018;8.552;2023-07-22T01:12:36;100287.22;;;12.32;98.85
74633;BME280;63139;52.018;8.552;2023-07-22T01:15:05;100276.69;;;12.24;98.80
74633;BME280;63139;52.018;8.552;2023-07-22T01:17:36;100270.69;;;12.15;98.54
74633;BME280;63139;52.018;8.552;2023-07-22T01:20:07;100275.88;;;12.09;98.55
74633;BME280;63139;52.018;8.552;2023-07-22T01:22:36;100276.78;;;12.01;98.67
74633;BME280;63139;52.018;8.552;2023-07-22T01:25:07;100277.69;;;11.93;98.76
74633;BME280;63139;52.018;8.552;2023-07-22T01:27:35;100279.25;;;11.88;98.98
74633;BME280;63139;52.018;8.552;2023-07-22T01:30:04;100277.31;;;11.82;99.50
74633;BME280;63139;52.018;8.552;2023-07-22T01:32:33;100283.81;;;11.79;99.81
74633;BME280;63139;52.018;8.552;2023-07-22T01:35:01;100288.94;;;11.81;100.00
74633;BME280;63139;52.018;8.552;2023-07-22T01:37:29;100285.75;;;11.85;100.00
74633;BME280;63139;52.018;8.552;2023-07-22T01:39:58;100279.91;;;11.90;100.00
74633;BME280;63139;52.018;8.552;2023-07-22T01:42:27;100285.47;;;11.95;100.00
74633;BME280;63139;52.018;8.552;2023-07-22T01:44:55;100285.94;;;11.98;100.00
74633;BME280;63139;52.018;8.552;2023-07-22T01:47:23;100288.03;;;12.03;100.00
74633;BME280;63139;52.018;8.552;2023-07-22T01:49:52;100277.06;;;12.06;100.00
74633;BME280;63139;52.018;8.552;2023-07-22T01:52:20;100279.81;;;12.13;99.71
74633;BME280;63139;52.018;8.552;2023-07-22T01:54:48;100277.44;;;12.18;99.16
74633;BME280;63139;52.018;8.552;2023-07-22T01:57:15;100274.25;;;12.22;99.11
74633;BME280;63139;52.018;8.552;2023-07-22T01:59:45;100280.63;;;12.28;98.70
74633;BME280;63139;52.018;8.552;2023-07-22T02:02:13;100286.84;;;12.35;98.71
74633;BME280;63139;52.018;8.552;2023-07-22T02:04:41;100285.28;;;12.40;98.58
74633;BME280;63139;52.018;8.552;2023-07-22T02:07:09;100286.38;;;12.46;97.91
74633;BME280;63139;52.018;8.552;2023-07-22T02:09:36;100283.38;;;12.49;97.76
74633;BME280;63139;52.018;8.552;2023-07-22T02:12:05;100289.75;;;12.55;97.71
74633;BME280;63139;52.018;8.552;2023-07-22T02:14:34;100284.09;;;12.58;97.25
74633;BME280;63139;52.018;8.552;2023-07-22T02:17:04;100289.66;;;12.63;96.72
74633;BME280;63139;52.018;8.552;2023-07-22T02:19:35;100284.34;;;12.63;96.35
74633;BME280;63139;52.018;8.552;2023-07-22T02:22:04;100295.63;;;12.65;95.93
74633;BME280;63139;52.018;8.552;2023-07-22T02:24:32;100286.00;;;12.64;95.74
74633;BME280;63139;52.018;8.552;2023-07-22T02:27:00;100287.66;;;12.65;95.70
74633;BME280;63139;52.018;8.552;2023-07-22T02:29:28;100291.75;;;12.67;95.64
74633;BME280;63139;52.018;8.552;2023-07-22T02:31:57;100289.91;;;12.68;95.40
74633;BME280;63139;52.018;8.552;2023-07-22T02:34:27;100280.75;;;12.70;95.29
74633;BME280;63139;52.018;8.552;2023-07-22T02:36:57;100293.84;;;12.72;95.30
74633;BME280;63139;52.018;8.552;2023-07-22T02:39:24;100284.06;;;12.72;95.35
74633;BME280;63139;52.018;8.552;2023-07-22T02:41:53;100285.50;;;12.75;95.27
74633;BME280;63139;52.018;8.552;2023-07-22T02:44:21;100286.31;;;12.75;95.21
74633;BME280;63139;52.018;8.552;2023-07-22T02:46:49;100275.69;;;12.75;94.50
74633;BME280;63139;52.018;8.552;2023-07-22T02:49:16;100282.03;;;12.74;94.63
74633;BME280;63139;52.018;8.552;2023-07-22T02:51:46;100283.22;;;12.72;94.32
74633;BME280;63139;52.018;8.552;2023-07-22T02:54:14;100284.59;;;12.68;94.30
74633;BME280;63139;52.018;8.552;2023-07-22T02:56:42;100281.50;;;12.64;94.55
74633;BME280;63139;52.018;8.552;2023-07-22T02:59:10;100282.69;;;12.62;94.32
74633;BME280;63139;52.018;8.552;2023-07-22T03:01:38;100278.78;;;12.58;94.42
74633;BME280;63139;52.018;8.552;2023-07-22T03:04:06;100282.78;;;12.54;94.52
74633;BME280;63139;52.018;8.552;2023-07-22T03:06:34;100278.69;;;12.51;94.58
74633;BME280;63139;52.018;8.552;2023-07-22T03:09:03;100280.72;;;12.49;94.64
74633;BME280;63139;52.018;8.552;2023-07-22T03:11:33;100279.41;;;12.45;94.43
74633;BME280;63139;52.018;8.552;2023-07-22T03:14:01;100284.47;;;12.40;94.44
74633;BME280;63139;52.018;8.552;2023-07-22T03:16:29;100285.03;;;12.35;94.64
74633;BME280;63139;52.018;8.552;2023-07-22T03:18:58;100294.19;;;12.33;94.79
74633;BME280;63139;52.018;8.552;2023-07-22T03:21:26;100293.53;;;12.31;94.92
74633;BME280;63139;52.018;8.552;2023-07-22T03:23:54;100290.88;;;12.31;95.20
74633;BME280;63139;52.018;8.552;2023-07-22T03:26:23;100291.69;;;12.31;95.51
74633;BME280;63139;52.018;8.552;2023-07-22T03:28:51;100294.66;;;12.36;95.77
74633;BME280;63139;52.018;8.552;2023-07-22T03:31:19;100300.22;;;12.41;95.42
74633;BME280;63139;52.018;8.552;2023-07-22T03:33:47;100293.34;;;12.47;95.52
74633;BME280;63139;52.018;8.552;2023-07-22T03:36:16;100296.06;;;12.54;95.79
74633;BME280;63139;52.018;8.552;2023-07-22T03:38:44;100302.50;;;12.59;95.55
74633;BME280;63139;52.018;8.552;2023-07-22T03:41:12;100297.88;;;12.68;95.10
74633;BME280;63139;52.018;8.552;2023-07-22T03:43:42;100300.44;;;12.76;95.13
74633;BME280;63139;52.018;8.552;2023-07-22T03:46:10;100298.66;;;12.83;94.55
74633;BME280;63139;52.018;8.552;2023-07-22T03:48:37;100298.56;;;12.91;94.36
74633;BME280;63139;52.018;8.552;2023-07-22T03:51:05;100302.13;;;12.98;94.24
74633;BME280;63139;52.018;8.552;2023-07-22T03:53:45;100306.69;;;13.04;93.64
74633;BME280;63139;52.018;8.552;2023-07-22T03:56:13;100306.13;;;13.09;93.58
74633;BME280;63139;52.018;8.552;2023-07-22T03:58:42;100308.88;;;13.15;93.38
74633;BME280;63139;52.018;8.552;2023-07-22T04:01:12;100301.34;;;13.19;93.02
74633;BME280;63139;52.018;8.552;2023-07-22T04:03:41;100304.91;;;13.26;92.87
74633;BME280;63139;52.018;8.552;2023-07-22T04:06:08;100305.97;;;13.32;92.63
74633;BME280;63139;52.018;8.552;2023-07-22T04:08:36;100306.41;;;13.35;92.70
74633;BME280;63139;52.018;8.552;2023-07-22T04:11:04;100303.19;;;13.40;92.32
74633;BME280;63139;52.018;8.552;2023-07-22T04:13:32;100306.28;;;13.43;92.10
74633;BME280;63139;52.018;8.552;2023-07-22T04:16:01;100298.13;;;13.45;91.78
74633;BME280;63139;52.018;8.552;2023-07-22T04:18:29;100306.56;;;13.48;91.68
74633;BME280;63139;52.018;8.552;2023-07-22T04:21:01;100306.34;;;13.50;91.56
74633;BME280;63139;52.018;8.552;2023-07-22T04:23:29;100306.78;;;13.53;91.11
74633;BME280;63139;52.018;8.552;2023-07-22T04:26:02;100313.75;;;13.54;90.82
74633;BME280;63139;52.018;8.552;2023-07-22T04:28:31;100317.03;;;13.56;91.01
74633;BME280;63139;52.018;8.552;2023-07-22T04:31:00;100326.88;;;13.56;90.95
74633;BME280;63139;52.018;8.552;2023-07-22T04:33:28;100323.81;;;13.59;90.94
74633;BME280;63139;52.018;8.552;2023-07-22T04:35:59;100326.09;;;13.62;91.15
74633;BME280;63139;52.018;8.552;2023-07-22T04:38:27;100312.81;;;13.62;91.30
74633;BME280;63139;52.018;8.552;2023-07-22T04:40:55;100314.25;;;13.65;91.39
74633;BME280;63139;52.018;8.552;2023-07-22T04:43:23;100322.28;;;13.71;91.17
74633;BME280;63139;52.018;8.552;2023-07-22T04:45:51;100323.38;;;13.77;90.93
74633;BME280;63139;52.018;8.552;2023-07-22T04:48:21;100325.44;;;13.81;90.59
74633;BME280;63139;52.018;8.552;2023-07-22T04:50:51;100328.94;;;13.82;90.59
74633;BME280;63139;52.018;8.552;2023-07-22T04:53:21;100332.41;;;13.82;90.80
74633;BME280;63139;52.018;8.552;2023-07-22T04:55:49;100325.06;;;13.84;90.97
74633;BME280;63139;52.018;8.552;2023-07-22T04:58:17;100321.81;;;13.89;91.02
74633;BME280;63139;52.018;8.552;2023-07-22T05:00:46;100333.72;;;13.93;91.02
74633;BME280;63139;52.018;8.552;2023-07-22T05:03:15;100331.88;;;13.93;91.20
74633;BME280;63139;52.018;8.552;2023-07-22T05:05:44;100342.31;;;13.95;90.26
74633;BME280;63139;52.018;8.552;2023-07-22T05:08:13;100350.75;;;13.98;90.68
74633;BME280;63139;52.018;8.552;2023-07-22T05:10:40;100340.34;;;14.04;90.06
74633;BME280;63139;52.018;8.552;2023-07-22T05:13:08;100343.25;;;14.09;90.11
74633;BME280;63139;52.018;8.552;2023-07-22T05:15:36;100348.63;;;14.15;89.94
74633;BME280;63139;52.018;8.552;2023-07-22T05:18:04;100344.56;;;14.19;89.36
74633;BME280;63139;52.018;8.552;2023-07-22T05:20:32;100336.22;;;14.29;89.21
74633;BME280;63139;52.018;8.552;2023-07-22T05:23:01;100341.22;;;14.38;88.47
74633;BME280;63139;52.018;8.552;2023-07-22T05:25:29;100334.53;;;14.49;87.85
74633;BME280;63139;52.018;8.552;2023-07-22T05:27:57;100334.00;;;14.67;86.88
74633;BME280;63139;52.018;8.552;2023-07-22T05:30:24;100329.75;;;14.79;86.45
74633;BME280;63139;52.018;8.552;2023-07-22T05:33:01;100336.94;;;14.85;86.09
74633;BME280;63139;52.018;8.552;2023-07-22T05:35:29;100331.81;;;14.84;86.49
74633;BME280;63139;52.018;8.552;2023-07-22T05:37:57;100336.56;;;14.88;86.38
74633;BME280;63139;52.018;8.552;2023-07-22T05:40:26;100339.66;;;14.98;85.73
74633;BME280;63139;52.018;8.552;2023-07-22T05:42:54;100342.38;;;15.11;85.20
74633;BME280;63139;52.018;8.552;2023-07-22T05:45:22;100339.09;;;15.16;85.13
74633;BME280;63139;52.018;8.552;2023-07-22T05:47:50;100334.41;;;15.25;84.87
74633;BME280;63139;52.018;8.552;2023-07-22T05:50:18;100331.94;;;15.36;84.88
74633;BME280;63139;52.018;8.552;2023-07-22T05:52:46;100327.25;;;15.45;84.44
74633;BME280;63139;52.018;8.552;2023-07-22T05:55:14;100333.41;;;15.45;84.67
74633;BME280;63139;52.018;8.552;2023-07-22T05:57:43;100333.25;;;15.53;83.74
74633;BME280;63139;52.018;8.552;2023-07-22T06:00:12;100330.38;;;15.62;82.48
74633;BME280;63139;52.018;8.552;2023-07-22T06:02:40;100334.69;;;15.82;81.98
74633;BME280;63139;52.018;8.552;2023-07-22T06:05:08;100336.50;;;16.02;81.65
74633;BME280;63139;52.018;8.552;2023-07-22T06:07:36;100337.94;;;16.17;80.60
74633;BME280;63139;52.018;8.552;2023-07-22T06:10:05;100338.75;;;16.24;80.31
74633;BME280;63139;52.018;8.552;2023-07-22T06:12:34;100338.16;;;16.22;80.42
74633;BME280;63139;52.018;8.552;2023-07-22T06:15:06;100338.13;;;16.16;80.16
74633;BME280;63139;52.018;8.552;2023-07-22T06:17:34;100342.47;;;16.04;80.33
74633;BME280;63139;52.018;8.552;2023-07-22T06:20:06;100338.97;;;16.10;80.09
74633;BME280;63139;52.018;8.552;2023-07-22T06:22:34;100347.38;;;16.26;79.07
74633;BME280;63139;52.018;8.552;2023-07-22T06:25:02;100342.00;;;16.46;78.62
74633;BME280;63139;52.018;8.552;2023-07-22T06:27:30;100334.97;;;16.65;77.70
74633;BME280;63139;52.018;8.552;2023-07-22T06:29:58;100340.19;;;16.98;77.03
74633;BME280;63139;52.018;8.552;2023-07-22T06:32:27;100335.16;;;17.15;76.79
74633;BME280;63139;52.018;8.552;2023-07-22T06:34:57;100336.06;;;17.40;76.00
74633;BME280;63139;52.018;8.552;2023-07-22T06:37:25;100331.22;;;17.55;76.17
74633;BME280;63139;52.018;8.552;2023-07-22T06:39:53;100336.09;;;17.65;75.40
74633;BME280;63139;52.018;8.552;2023-07-22T06:42:21;100338.69;;;17.78;75.60
74633;BME280;63139;52.018;8.552;2023-07-22T06:44:49;100329.44;;;17.74;75.85
74633;BME280;63139;52.018;8.552;2023-07-22T06:47:17;100333.66;;;17.63;75.96
74633;BME280;63139;52.018;8.552;2023-07-22T06:49:46;100329.34;;;17.62;75.83
74633;BME280;63139;52.018;8.552;2023-07-22T06:52:14;100330.69;;;17.71;76.17
74633;BME280;63139;52.018;8.552;2023-07-22T06:54:42;100333.69;;;17.81;75.88
74633;BME280;63139;52.018;8.552;2023-07-22T06:57:09;100336.53;;;18.11;74.83
74633;BME280;63139;52.018;8.552;2023-07-22T06:59:38;100343.78;;;18.29;74.62
74633;BME280;63139;52.018;8.552;2023-07-22T07:02:05;100345.19;;;18.32;74.28
74633;BME280;63139;52.018;8.552;2023-07-22T07:04:34;100338.78;;;18.33;73.37
74633;BME280;63139;52.018;8.552;2023-07-22T07:07:03;100343.19;;;18.27;73.27
74633;BME280;63139;52.018;8.552;2023-07-22T07:09:31;100346.53;;;18.41;73.90
74633;BME280;63139;52.018;8.552;2023-07-22T07:11:59;100342.97;;;18.47;72.96
74633;BME280;63139;52.018;8.552;2023-07-22T07:14:27;100339.47;;;18.46;72.47
74633;BME280;63139;52.018;8.552;2023-07-22T07:16:55;100338.59;;;18.71;72.07
74633;BME280;63139;52.018;8.552;2023-07-22T07:19:22;100344.41;;;18.68;71.80
74633;BME280;63139;52.018;8.552;2023-07-22T07:21:50;100345.09;;;18.63;70.94
74633;BME280;63139;52.018;8.552;2023-07-22T07:24:20;100349.75;;;18.68;69.99
74633;BME280;63139;52.018;8.552;2023-07-22T07:26:47;100349.19;;;18.66;68.95
74633;BME280;63139;52.018;8.552;2023-07-22T07:29:15;100342.53;;;18.68;68.98
74633;BME280;63139;52.018;8.552;2023-07-22T07:32:04;100351.13;;;18.58;68.98
74633;BME280;63139;52.018;8.552;2023-07-22T07:34:32;100350.19;;;18.46;69.73
74633;BME280;63139;52.018;8.552;2023-07-22T07:37:00;100347.06;;;18.49;70.48
74633;BME280;63139;52.018;8.552;2023-07-22T07:39:29;100352.44;;;18.68;69.91
74633;BME280;63139;52.018;8.552;2023-07-22T07:41:56;100350.59;;;18.86;69.88
74633;BME280;63139;52.018;8.552;2023-07-22T07:44:24;100348.72;;;18.87;70.32
74633;BME280;63139;52.018;8.552;2023-07-22T07:46:52;100343.66;;;18.79;69.92
74633;BME280;63139;52.018;8.552;2023-07-22T07:49:20;100351.28;;;18.82;69.22
74633;BME280;63139;52.018;8.552;2023-07-22T07:51:48;100333.66;;;18.86;69.27
74633;BME280;63139;52.018;8.552;2023-07-22T07:54:16;100340.16;;;18.96;68.40
74633;BME280;63139;52.018;8.552;2023-07-22T07:56:45;100333.06;;;19.32;68.18
74633;BME280;63139;52.018;8.552;2023-07-22T07:59:13;100336.06;;;19.54;67.59
74633;BME280;63139;52.018;8.552;2023-07-22T08:01:41;100335.75;;;19.97;66.93
74633;BME280;63139;52.018;8.552;2023-07-22T08:04:09;100345.69;;;20.31;66.28
74633;BME280;63139;52.018;8.552;2023-07-22T08:06:37;100339.97;;;20.39;66.39
74633;BME280;63139;52.018;8.552;2023-07-22T08:09:05;100344.19;;;20.47;65.71
74633;BME280;63139;52.018;8.552;2023-07-22T08:11:33;100346.06;;;20.58;64.19
74633;BME280;63139;52.018;8.552;2023-07-22T08:14:02;100343.91;;;20.72;62.14
74633;BME280;63139;52.018;8.552;2023-07-22T08:16:30;100343.94;;;21.00;62.29
74633;BME280;63139;52.018;8.552;2023-07-22T08:18:57;100344.84;;;21.06;61.43
74633;BME280;63139;52.018;8.552;2023-07-22T08:21:25;100341.78;;;21.14;62.17
74633;BME280;63139;52.018;8.552;2023-07-22T08:23:53;100343.97;;;21.28;61.52
74633;BME280;63139;52.018;8.552;2023-07-22T08:26:21;100344.91;;;21.51;61.90
74633;BME280;63139;52.018;8.552;2023-07-22T08:28:49;100347.44;;;21.57;60.45
74633;BME280;63139;52.018;8.552;2023-07-22T08:31:18;100342.16;;;21.62;61.44
74633;BME280;63139;52.018;8.552;2023-07-22T08:33:46;100339.78;;;21.66;61.59
74633;BME280;63139;52.018;8.552;2023-07-22T08:36:14;100340.16;;;21.58;61.15
74633;BME280;63139;52.018;8.552;2023-07-22T08:38:42;100340.16;;;21.58;61.35
74633;BME280;63139;52.018;8.552;2023-07-22T08:41:14;100348.66;;;21.50;60.55
74633;BME280;63139;52.018;8.552;2023-07-22T08:43:45;100343.53;;;21.48;61.45
74633;BME280;63139;52.018;8.552;2023-07-22T08:46:13;100347.16;;;21.42;61.58
74633;BME280;63139;52.018;8.552;2023-07-22T08:48:46;100343.25;;;21.33;61.45
74633;BME280;63139;52.018;8.552;2023-07-22T08:51:17;100361.28;;;21.33;61.83
74633;BME280;63139;52.018;8.552;2023-07-22T08:53:46;100353.59;;;21.24;61.58
74633;BME280;63139;52.018;8.552;2023-07-22T08:56:34;100352.44;;;21.20;61.63
74633;BME280;63139;52.018;8.552;2023-07-22T08:59:02;100349.03;;;21.13;62.01
74633;BME280;63139;52.018;8.552;2023-07-22T09:01:33;100340.13;;;21.24;61.74
74633;BME280;63139;52.018;8.552;2023-07-22T09:04:04;100332.75;;;21.48;61.28
74633;BME280;63139;52.018;8.552;2023-07-22T09:06:33;100333.97;;;21.57;61.23
74633;BME280;63139;52.018;8.552;2023-07-22T09:09:02;100343.19;;;21.95;60.32
74633;BME280;63139;52.018;8.552;2023-07-22T09:11:34;100347.38;;;22.36;59.51
74633;BME280;63139;52.018;8.552;2023-07-22T09:14:03;100332.19;;;22.52;59.15
74633;BME280;63139;52.018;8.552;2023-07-22T09:16:32;100345.59;;;22.46;58.30
74633;BME280;63139;52.018;8.552;2023-07-22T09:19:04;100339.03;;;22.59;58.54
74633;BME280;63139;52.018;8.552;2023-07-22T09:21:32;100345.91;;;22.89;57.21
74633;BME280;63139;52.018;8.552;2023-07-22T09:24:19;100343.31;;;22.99;55.31
74633;BME280;63139;52.018;8.552;2023-07-22T09:26:48;100336.88;;;23.05;56.15
74633;BME280;63139;52.018;8.552;2023-07-22T09:29:16;100336.81;;;23.21;56.25
74633;BME280;63139;52.018;8.552;2023-07-22T09:31:54;100338.16;;;23.19;54.66
74633;BME280;63139;52.018;8.552;2023-07-22T09:34:23;100343.69;;;23.07;55.08
74633;BME280;63139;52.018;8.552;2023-07-22T09:36:53;100342.13;;;23.11;56.25
74633;BME280;63139;52.018;8.552;2023-07-22T09:39:21;100335.81;;;23.06;55.03
74633;BME280;63139;52.018;8.552;2023-07-22T09:41:50;100342.66;;;23.13;54.38
74633;BME280;63139;52.018;8.552;2023-07-22T09:44:19;100336.88;;;23.53;53.85
74633;BME280;63139;52.018;8.552;2023-07-22T09:46:47;100331.03;;;23.98;53.29
74633;BME280;63139;52.018;8.552;2023-07-22T09:49:18;100320.66;;;24.22;52.81
74633;BME280;63139;52.018;8.552;2023-07-22T09:51:47;100328.13;;;24.52;51.87
74633;BME280;63139;52.018;8.552;2023-07-22T09:54:27;100326.59;;;24.71;50.57
74633;BME280;63139;52.018;8.552;2023-07-22T09:56:57;100332.00;;;24.66;50.94
74633;BME280;63139;52.018;8.552;2023-07-22T09:59:28;100320.91;;;24.73;48.29
74633;BME280;63139;52.018;8.552;2023-07-22T10:01:57;100320.59;;;24.64;48.20
74633;BME280;63139;52.018;8.552;2023-07-22T10:04:32;100312.53;;;24.80;49.52
74633;BME280;63139;52.018;8.552;2023-07-22T10:07:03;100315.75;;;24.71;48.35
74633;BME280;63139;52.018;8.552;2023-07-22T10:09:32;100318.25;;;24.31;48.25
74633;BME280;63139;52.018;8.552;2023-07-22T10:12:02;100317.84;;;24.07;48.96
74633;BME280;63139;52.018;8.552;2023-07-22T10:14:31;100316.22;;;24.11;49.62
74633;BME280;63139;52.018;8.552;2023-07-22T10:17:04;100307.97;;;23.86;49.98
74633;BME280;63139;52.018;8.552;2023-07-22T10:19:32;100302.63;;;23.64;50.22
74633;BME280;63139;52.018;8.552;2023-07-22T10:22:05;100301.38;;;23.45;49.30
74633;BME280;63139;52.018;8.552;2023-07-22T10:24:35;100303.72;;;23.36;49.10
74633;BME280;63139;52.018;8.552;2023-07-22T10:27:04;100306.03;;;23.49;50.06
74633;BME280;63139;52.018;8.552;2023-07-22T10:29:33;100307.81;;;23.39;47.56
74633;BME280;63139;52.018;8.552;2023-07-22T10:32:01;100292.81;;;23.53;48.98
74633;BME280;63139;52.018;8.552;2023-07-22T10:34:31;100289.22;;;23.79;49.14
74633;BME280;63139;52.018;8.552;2023-07-22T10:36:59;100291.53;;;23.97;48.89
74633;BME280;63139;52.018;8.552;2023-07-22T10:39:28;100288.38;;;24.16;48.25
74633;BME280;63139;52.018;8.552;2023-07-22T10:42:00;100284.75;;;24.42;46.89
74633;BME280;63139;52.018;8.552;2023-07-22T10:44:30;100286.81;;;24.82;47.29
74633;BME280;63139;52.018;8.552;2023-07-22T10:46:59;100276.59;;;25.09;46.60
74633;BME280;63139;52.018;8.552;2023-07-22T10:49:42;100279.63;;;25.33;44.26
74633;BME280;63139;52.018;8.552;2023-07-22T10:52:11;100272.03;;;25.40;46.26
74633;BME280;63139;52.018;8.552;2023-07-22T10:54:41;100265.22;;;25.43;44.63
74633;BME280;63139;52.018;8.552;2023-07-22T10:57:24;100264.16;;;25.59;43.16
74633;BME280;63139;52.018;8.552;2023-07-22T10:59:55;100267.97;;;25.33;44.73
74633;BME280;63139;52.018;8.552;2023-07-22T11:02:24;100271.16;;;25.20;45.04
74633;BME280;63139;52.018;8.552;2023-07-22T11:04:56;100264.97;;;25.24;44.19
74633;BME280;63139;52.018;8.552;2023-07-22T11:07:33;100278.50;;;25.29;43.45
74633;BME280;63139;52.018;8.552;2023-07-22T11:10:13;100272.81;;;25.21;42.65
74633;BME280;63139;52.018;8.552;2023-07-22T11:12:44;100260.88;;;25.22;44.26
74633;BME280;63139;52.018;8.552;2023-07-22T11:15:15;100257.91;;;25.18;44.00
74633;BME280;63139;52.018;8.552;2023-07-22T11:17:43;100263.03;;;25.14;44.74
74633;BME280;63139;52.018;8.552;2023-07-22T11:20:11;100261.41;;;25.03;44.42
74633;BME280;63139;52.018;8.552;2023-07-22T11:22:39;100253.84;;;25.10;44.63
74633;BME280;63139;52.018;8.552;2023-07-22T11:25:07;100245.72;;;25.26;44.12
74633;BME280;63139;52.018;8.552;2023-07-22T11:27:37;100256.28;;;25.27;43.09
74633;BME280;63139;52.018;8.552;2023-07-22T11:30:05;100247.34;;;25.27;42.30
74633;BME280;63139;52.018;8.552;2023-07-22T11:32:34;100250.31;;;25.20;42.29
74633;BME280;63139;52.018;8.552;2023-07-22T11:35:02;100234.84;;;25.21;42.61
74633;BME280;63139;52.018;8.552;2023-07-22T11:37:31;100238.41;;;25.41;41.92
74633;BME280;63139;52.018;8.552;2023-07-22T11:40:00;100248.13;;;25.58;41.40
74633;BME280;63139;52.018;8.552;2023-07-22T11:42:28;100241.09;;;25.77;41.85
74633;BME280;63139;52.018;8.552;2023-07-22T11:44:58;100237.28;;;25.88;41.21
74633;BME280;63139;52.018;8.552;2023-07-22T11:47:28;100246.47;;;26.02;41.96
74633;BME280;63139;52.018;8.552;2023-07-22T11:49:56;100235.00;;;26.20;41.26
74633;BME280;63139;52.018;8.552;2023-07-22T11:52:25;100235.53;;;26.38;40.50
74633;BME280;63139;52.018;8.552;2023-07-22T11:54:53;100230.81;;;26.53;41.07
74633;BME280;63139;52.018;8.552;2023-07-22T11:57:22;100229.41;;;26.66;39.75
74633;BME280;63139;52.018;8.552;2023-07-22T11:59:52;100223.16;;;26.65;40.34
74633;BME280;63139;52.018;8.552;2023-07-22T12:02:23;100226.91;;;26.75;39.76
74633;BME280;63139;52.018;8.552;2023-07-22T12:04:52;100222.28;;;26.70;39.00
74633;BME280;63139;52.018;8.552;2023-07-22T12:07:27;100234.88;;;26.56;37.98
74633;BME280;63139;52.018;8.552;2023-07-22T12:09:57;100233.91;;;26.32;38.32
74633;BME280;63139;52.018;8.552;2023-07-22T12:12:32;100236.09;;;26.19;37.35
74633;BME280;63139;52.018;8.552;2023-07-22T12:15:08;100221.72;;;26.29;38.66
74633;BME280;63139;52.018;8.552;2023-07-22T12:17:45;100222.78;;;26.23;38.51
74633;BME280;63139;52.018;8.552;2023-07-22T12:20:14;100218.16;;;26.34;39.40
74633;BME280;63139;52.018;8.552;2023-07-22T12:22:42;100221.13;;;26.37;38.99
74633;BME280;63139;52.018;8.552;2023-07-22T12:25:10;100214.38;;;26.30;39.33
74633;BME280;63139;52.018;8.552;2023-07-22T12:27:38;100216.81;;;26.26;39.34
74633;BME280;63139;52.018;8.552;2023-07-22T12:30:07;100214.91;;;26.26;39.20
74633;BME280;63139;52.018;8.552;2023-07-22T12:32:35;100210.00;;;26.23;38.32
74633;BME280;63139;52.018;8.552;2023-07-22T12:35:05;100211.97;;;26.13;36.95
74633;BME280;63139;52.018;8.552;2023-07-22T12:37:33;100208.22;;;25.88;38.01
74633;BME280;63139;52.018;8.552;2023-07-22T12:40:01;100205.53;;;25.83;38.36
74633;BME280;63139;52.018;8.552;2023-07-22T12:42:35;100197.97;;;25.65;38.92
74633;BME280;63139;52.018;8.552;2023-07-22T12:45:03;100208.03;;;25.39;39.19
74633;BME280;63139;52.018;8.552;2023-07-22T12:47:32;100197.72;;;25.31;39.13
74633;BME280;63139;52.018;8.552;2023-07-22T12:49:59;100198.81;;;25.10;38.82
74633;BME280;63139;52.018;8.552;2023-07-22T12:52:29;100198.22;;;24.88;39.27
74633;BME280;63139;52.018;8.552;2023-07-22T12:54:56;100196.53;;;24.61;40.54
74633;BME280;63139;52.018;8.552;2023-07-22T12:57:24;100201.16;;;24.61;40.29